sensor_id;sensor_type;location;lat;lon;timestamp;pressure;altitude;pressure_sealevel;temperature;humidity
46408;BME280;32110;45.724;21.276;2023-09-30T02:47:42;100981.72;;;12.28;nan
46408;BME280;32110;45.724;21.276;2023-09-30T08:36:14;101079.50;;;18.41;nan
46408;BME280;32110;45.724;21.276;2023-09-30T08:46:02;101097.28;;;18.88;nan
46408;BME280;32110;45.724;21.276;2023-09-30T08:50:53;101083.75;;;19.16;nan
46408;BME280;32110;45.724;21.276;2023-09-30T08:53:23;101076.53;;;19.26;nan
46408;BME280;32110;45.724;21.276;2023-09-30T08:58:18;101064.50;;;19.39;nan
46408;BME280;32110;45.724;21.276;2023-09-30T09:00:44;101069.03;;;19.59;nan
46408;BME280;32110;45.724;21.276;2023-09-30T09:03:10;101070.13;;;19.73;nan
46408;BME280;32110;45.724;21.276;2023-09-30T09:05:36;101073.84;;;19.88;nan
46408;BME280;32110;45.724;21.276;2023-09-30T09:08:01;101071.94;;;19.98;nan
46408;BME280;32110;45.724;21.276;2023-09-30T09:10:26;100990.59;;;20.15;nan
46408;BME280;32110;45.724;21.276;2023-09-30T09:12:57;101101.53;;;20.28;nan
46408;BME280;32110;45.724;21.276;2023-09-30T09:15:27;101054.72;;;20.35;nan
46408;BME280;32110;45.724;21.276;2023-09-30T09:17:56;101057.31;;;20.51;nan
46408;BME280;32110;45.724;21.276;2023-09-30T09:20:23;101053.28;;;20.58;nan
46408;BME280;32110;45.724;21.276;2023-09-30T09:22:52;101055.63;;;20.70;nan
46408;BME280;32110;45.724;21.276;2023-09-30T09:25:22;101019.97;;;20.80;nan
46408;BME280;32110;45.724;21.276;2023-09-30T09:27:48;101044.19;;;20.99;nan
46408;BME280;32110;45.724;21.276;2023-09-30T09:30:24;101056.66;;;21.14;nan
46408;BME280;32110;45.724;21.276;2023-09-30T09:35:26;101065.84;;;21.42;nan
46408;BME280;32110;45.724;21.276;2023-09-30T09:38:00;101051.56;;;21.52;nan
46408;BME280;32110;45.724;21.276;2023-09-30T09:40:28;101063.28;;;21.61;nan
46408;BME280;32110;45.724;21.276;2023-09-30T09:45:21;101050.69;;;21.85;nan
46408;BME280;32110;45.724;21.276;2023-09-30T09:47:50;101040.94;;;21.95;nan
46408;BME280;32110;45.724;21.276;2023-09-30T09:50:17;101041.28;;;22.12;nan
46408;BME280;32110;45.724;21.276;2023-09-30T09:52:44;101090.28;;;22.23;nan
46408;BME280;32110;45.724;21.276;2023-09-30T09:55:13;101051.44;;;22.39;nan
46408;BME280;32110;45.724;21.276;2023-09-30T09:57:40;101042.53;;;22.44;nan
46408;BME280;32110;45.724;21.276;2023-09-30T10:00:07;101040.38;;;22.46;nan
46408;BME280;32110;45.724;21.276;2023-09-30T10:02:40;101037.22;;;22.58;nan
46408;BME280;32110;45.724;21.276;2023-09-30T10:05:06;100997.91;;;22.67;nan
46408;BME280;32110;45.724;21.276;2023-09-30T10:07:52;101029.41;;;22.80;nan
46408;BME280;32110;45.724;21.276;2023-09-30T10:10:21;101024.97;;;22.89;nan
46408;BME280;32110;45.724;21.276;2023-09-30T10:12:47;101027.25;;;22.96;nan
46408;BME280;32110;45.724;21.276;2023-09-30T10:18:23;101018.03;;;23.21;nan
46408;BME280;32110;45.724;21.276;2023-09-30T10:20:48;101007.09;;;23.31;nan
46408;BME280;32110;45.724;21.276;2023-09-30T10:23:17;100996.34;;;23.31;nan
46408;BME280;32110;45.724;21.276;2023-09-30T10:25:47;101006.53;;;23.34;nan
46408;BME280;32110;45.724;21.276;2023-09-30T10:28:51;101013.22;;;23.37;nan
46408;BME280;32110;45.724;21.276;2023-09-30T10:31:21;100993.78;;;23.40;nan
46408;BME280;32110;45.724;21.276;2023-09-30T10:36:32;100998.19;;;23.64;nan
46408;BME280;32110;45.724;21.276;2023-09-30T10:38:58;101004.31;;;23.83;nan
46408;BME280;32110;45.724;21.276;2023-09-30T10:46:48;100948.00;;;24.01;nan
46408;BME280;32110;45.724;21.276;2023-09-30T10:49:15;101007.16;;;24.14;nan
46408;BME280;32110;45.724;21.276;2023-09-30T10:51:42;101019.13;;;24.22;nan
46408;BME280;32110;45.724;21.276;2023-09-30T10:54:08;100999.56;;;24.30;nan
46408;BME280;32110;45.724;21.276;2023-09-30T10:56:33;100960.16;;;24.34;nan
46408;BME280;32110;45.724;21.276;2023-09-30T10:58:59;101018.88;;;24.32;nan
46408;BME280;32110;45.724;21.276;2023-09-30T11:01:32;100986.00;;;24.35;nan
46408;BME280;32110;45.724;21.276;2023-09-30T11:04:01;100958.06;;;24.45;nan
46408;BME280;32110;45.724;21.276;2023-09-30T11:06:30;100967.19;;;24.58;nan
46408;BME280;32110;45.724;21.276;2023-09-30T11:08:58;100973.53;;;24.76;nan
46408;BME280;32110;45.724;21.276;2023-09-30T11:11:52;100964.06;;;24.87;nan
46408;BME280;32110;45.724;21.276;2023-09-30T11:14:29;100943.06;;;24.98;nan
46408;BME280;32110;45.724;21.276;2023-09-30T11:17:00;100919.41;;;24.95;nan
46408;BME280;32110;45.724;21.276;2023-09-30T11:19:34;100949.81;;;24.87;nan
46408;BME280;32110;45.724;21.276;2023-09-30T11:22:00;100947.47;;;24.94;nan
46408;BME280;32110;45.724;21.276;2023-09-30T11:24:26;100965.16;;;25.09;nan
46408;BME280;32110;45.724;21.276;2023-09-30T11:26:55;100929.06;;;25.18;nan
46408;BME280;32110;45.724;21.276;2023-09-30T11:29:23;100986.50;;;25.19;nan
46408;BME280;32110;45.724;21.276;2023-09-30T11:31:50;100989.06;;;25.24;nan
46408;BME280;32110;45.724;21.276;2023-09-30T11:34:16;100940.88;;;25.31;nan
46408;BME280;32110;45.724;21.276;2023-09-30T11:36:50;100928.69;;;25.34;nan
46408;BME280;32110;45.724;21.276;2023-09-30T11:39:23;100932.59;;;25.28;nan
46408;BME280;32110;45.724;21.276;2023-09-30T11:41:49;100942.91;;;25.25;nan
46408;BME280;32110;45.724;21.276;2023-09-30T11:44:15;100922.16;;;25.35;nan
46408;BME280;32110;45.724;21.276;2023-09-30T11:49:33;100939.56;;;25.68;nan
46408;BME280;32110;45.724;21.276;2023-09-30T11:52:06;100926.09;;;25.77;nan
46408;BME280;32110;45.724;21.276;2023-09-30T11:54:43;100927.88;;;25.82;nan
46408;BME280;32110;45.724;21.276;2023-09-30T11:57:13;100896.88;;;25.71;nan
46408;BME280;32110;45.724;21.276;2023-09-30T11:59:42;100925.13;;;25.64;nan
46408;BME280;32110;45.724;21.276;2023-09-30T12:02:09;100920.88;;;25.72;nan
46408;BME280;32110;45.724;21.276;2023-09-30T12:04:36;100900.38;;;25.71;nan
46408;BME280;32110;45.724;21.276;2023-09-30T12:07:02;100924.50;;;25.76;nan
46408;BME280;32110;45.724;21.276;2023-09-30T12:09:27;100921.34;;;25.74;nan
46408;BME280;32110;45.724;21.276;2023-09-30T12:11:54;100930.03;;;25.71;nan
46408;BME280;32110;45.724;21.276;2023-09-30T12:14:21;100958.28;;;25.74;nan
46408;BME280;32110;45.724;21.276;2023-09-30T12:16:47;100928.38;;;25.93;nan
46408;BME280;32110;45.724;21.276;2023-09-30T12:19:19;100909.03;;;26.08;nan
46408;BME280;32110;45.724;21.276;2023-09-30T12:21:46;100910.28;;;26.19;nan
46408;BME280;32110;45.724;21.276;2023-09-30T12:24:14;100907.75;;;26.14;nan
46408;BME280;32110;45.724;21.276;2023-09-30T12:26:45;100960.31;;;26.17;nan
46408;BME280;32110;45.724;21.276;2023-09-30T12:29:17;100954.75;;;26.30;nan
46408;BME280;32110;45.724;21.276;2023-09-30T12:31:50;100909.78;;;26.43;nan
46408;BME280;32110;45.724;21.276;2023-09-30T12:34:16;100878.50;;;26.42;nan
46408;BME280;32110;45.724;21.276;2023-09-30T12:36:42;100879.16;;;26.39;nan
46408;BME280;32110;45.724;21.276;2023-09-30T12:39:09;100844.06;;;26.39;nan
46408;BME280;32110;45.724;21.276;2023-09-30T12:41:41;100895.19;;;26.53;nan
46408;BME280;32110;45.724;21.276;2023-09-30T12:44:07;100883.25;;;26.45;nan
46408;BME280;32110;45.724;21.276;2023-09-30T12:46:33;100876.94;;;26.41;nan
46408;BME280;32110;45.724;21.276;2023-09-30T12:49:01;100892.66;;;26.39;nan
46408;BME280;32110;45.724;21.276;2023-09-30T12:51:28;100958.41;;;26.43;nan
46408;BME280;32110;45.724;21.276;2023-09-30T12:58:44;100879.16;;;26.39;nan
46408;BME280;32110;45.724;21.276;2023-09-30T13:01:09;100921.59;;;26.39;nan
46408;BME280;32110;45.724;21.276;2023-09-30T13:03:35;100872.00;;;26.35;nan
46408;BME280;32110;45.724;21.276;2023-09-30T13:06:01;100888.50;;;26.50;nan
46408;BME280;32110;45.724;21.276;2023-09-30T13:08:26;100870.88;;;26.53;nan
46408;BME280;32110;45.724;21.276;2023-09-30T13:10:51;100866.75;;;26.47;nan
46408;BME280;32110;45.724;21.276;2023-09-30T13:13:17;100869.78;;;26.54;nan
46408;BME280;32110;45.724;21.276;2023-09-30T13:15:43;100905.34;;;26.47;nan
46408;BME280;32110;45.724;21.276;2023-09-30T13:18:09;100843.41;;;26.51;nan
46408;BME280;32110;45.724;21.276;2023-09-30T13:20:34;100841.19;;;26.44;nan
46408;BME280;32110;45.724;21.276;2023-09-30T13:22:59;100799.25;;;26.38;nan
46408;BME280;32110;45.724;21.276;2023-09-30T13:25:25;100845.16;;;26.38;nan
46408;BME280;32110;45.724;21.276;2023-09-30T13:27:51;100862.31;;;26.42;nan
46408;BME280;32110;45.724;21.276;2023-09-30T13:30:17;100793.38;;;26.54;nan
46408;BME280;32110;45.724;21.276;2023-09-30T13:32:43;100775.91;;;26.42;nan
46408;BME280;32110;45.724;21.276;2023-09-30T13:35:09;100836.59;;;26.54;nan
46408;BME280;32110;45.724;21.276;2023-09-30T13:37:35;100874.53;;;26.66;nan
46408;BME280;32110;45.724;21.276;2023-09-30T13:40:03;100842.59;;;26.68;nan
46408;BME280;32110;45.724;21.276;2023-09-30T13:42:34;100838.75;;;26.69;nan
46408;BME280;32110;45.724;21.276;2023-09-30T13:45:00;100886.91;;;26.76;nan
46408;BME280;32110;45.724;21.276;2023-09-30T13:47:25;100833.69;;;26.67;nan
46408;BME280;32110;45.724;21.276;2023-09-30T13:49:51;100849.84;;;26.76;nan
46408;BME280;32110;45.724;21.276;2023-09-30T13:52:17;100851.28;;;26.82;nan
46408;BME280;32110;45.724;21.276;2023-09-30T13:54:42;100834.28;;;26.82;nan
46408;BME280;32110;45.724;21.276;2023-09-30T13:57:08;100813.72;;;26.89;nan
46408;BME280;32110;45.724;21.276;2023-09-30T13:59:34;100810.63;;;26.70;nan
46408;BME280;32110;45.724;21.276;2023-09-30T14:02:00;100837.59;;;26.79;nan
46408;BME280;32110;45.724;21.276;2023-09-30T14:04:26;100793.59;;;26.78;nan
46408;BME280;32110;45.724;21.276;2023-09-30T14:06:51;100862.13;;;26.65;nan
46408;BME280;32110;45.724;21.276;2023-09-30T14:09:16;100818.59;;;26.58;nan
46408;BME280;32110;45.724;21.276;2023-09-30T14:11:43;100826.84;;;26.52;nan
46408;BME280;32110;45.724;21.276;2023-09-30T14:14:09;100836.22;;;26.64;nan
46408;BME280;32110;45.724;21.276;2023-09-30T14:16:35;100766.84;;;26.56;nan
46408;BME280;32110;45.724;21.276;2023-09-30T14:19:02;100824.81;;;26.49;nan
46408;BME280;32110;45.724;21.276;2023-09-30T14:21:28;100841.47;;;26.51;nan
46408;BME280;32110;45.724;21.276;2023-09-30T14:23:54;100820.25;;;26.24;nan
46408;BME280;32110;45.724;21.276;2023-09-30T14:26:19;100782.00;;;26.22;nan
46408;BME280;32110;45.724;21.276;2023-09-30T14:28:45;100867.09;;;26.28;nan
46408;BME280;32110;45.724;21.276;2023-09-30T14:31:10;100833.56;;;26.29;nan
46408;BME280;32110;45.724;21.276;2023-09-30T14:33:36;100869.78;;;26.19;nan
46408;BME280;32110;45.724;21.276;2023-09-30T14:36:03;100816.47;;;26.07;nan
46408;BME280;32110;45.724;21.276;2023-09-30T14:38:31;100814.09;;;25.97;nan
46408;BME280;32110;45.724;21.276;2023-09-30T14:40:56;100809.81;;;25.96;nan
46408;BME280;32110;45.724;21.276;2023-09-30T14:43:21;100833.44;;;25.91;nan
46408;BME280;32110;45.724;21.276;2023-09-30T14:45:47;100814.56;;;25.91;nan
46408;BME280;32110;45.724;21.276;2023-09-30T14:48:12;100856.59;;;25.74;nan
46408;BME280;32110;45.724;21.276;2023-09-30T14:50:48;100758.06;;;25.77;nan
46408;BME280;32110;45.724;21.276;2023-09-30T14:53:13;100821.84;;;25.81;nan
46408;BME280;32110;45.724;21.276;2023-09-30T14:55:38;100831.69;;;25.77;nan
46408;BME280;32110;45.724;21.276;2023-09-30T14:58:06;100830.41;;;25.66;nan
46408;BME280;32110;45.724;21.276;2023-09-30T15:00:31;100807.56;;;25.63;nan
46408;BME280;32110;45.724;21.276;2023-09-30T15:02:56;100816.59;;;25.59;nan
46408;BME280;32110;45.724;21.276;2023-09-30T15:05:22;100826.09;;;25.47;nan
46408;BME280;32110;45.724;21.276;2023-09-30T15:07:49;100835.28;;;25.46;nan
46408;BME280;32110;45.724;21.276;2023-09-30T15:10:14;100830.34;;;25.40;nan
46408;BME280;32110;45.724;21.276;2023-09-30T15:12:40;100828.75;;;25.30;nan
46408;BME280;32110;45.724;21.276;2023-09-30T15:15:05;100809.09;;;25.30;nan
46408;BME280;32110;45.724;21.276;2023-09-30T15:17:31;100815.44;;;25.25;nan
46408;BME280;32110;45.724;21.276;2023-09-30T15:19:58;100807.66;;;25.23;nan
46408;BME280;32110;45.724;21.276;2023-09-30T15:22:25;100817.00;;;25.17;nan
46408;BME280;32110;45.724;21.276;2023-09-30T15:24:50;100821.09;;;25.15;nan
46408;BME280;32110;45.724;21.276;2023-09-30T15:27:15;100822.50;;;25.12;nan
46408;BME280;32110;45.724;21.276;2023-09-30T15:29:42;100867.53;;;25.12;nan
46408;BME280;32110;45.724;21.276;2023-09-30T15:32:08;100861.47;;;25.06;nan
46408;BME280;32110;45.724;21.276;2023-09-30T15:34:35;100866.38;;;25.04;nan
46408;BME280;32110;45.724;21.276;2023-09-30T15:37:03;100861.75;;;24.96;nan
46408;BME280;32110;45.724;21.276;2023-09-30T15:39:37;100853.47;;;24.92;nan
46408;BME280;32110;45.724;21.276;2023-09-30T15:42:03;100830.94;;;24.79;nan
46408;BME280;32110;45.724;21.276;2023-09-30T15:44:28;100849.28;;;24.77;nan
46408;BME280;32110;45.724;21.276;2023-09-30T15:46:55;100847.09;;;24.79;nan
46408;BME280;32110;45.724;21.276;2023-09-30T15:49:21;100844.19;;;24.67;nan
46408;BME280;32110;45.724;21.276;2023-09-30T15:51:47;100853.69;;;24.65;nan
46408;BME280;32110;45.724;21.276;2023-09-30T15:54:15;100845.97;;;24.49;nan
46408;BME280;32110;45.724;21.276;2023-09-30T15:56:41;100864.59;;;24.59;nan
46408;BME280;32110;45.724;21.276;2023-09-30T15:59:10;100861.69;;;24.56;nan
46408;BME280;32110;45.724;21.276;2023-09-30T16:01:35;100867.03;;;24.47;nan
46408;BME280;32110;45.724;21.276;2023-09-30T16:04:00;100803.69;;;24.27;nan
46408;BME280;32110;45.724;21.276;2023-09-30T16:06:26;100815.31;;;24.36;nan
46408;BME280;32110;45.724;21.276;2023-09-30T16:08:52;100789.44;;;24.27;nan
46408;BME280;32110;45.724;21.276;2023-09-30T16:11:25;100822.53;;;24.27;nan
46408;BME280;32110;45.724;21.276;2023-09-30T16:13:52;100805.44;;;24.23;nan
46408;BME280;32110;45.724;21.276;2023-09-30T16:16:18;100809.41;;;24.26;nan
46408;BME280;32110;45.724;21.276;2023-09-30T16:18:43;100835.63;;;24.20;nan
46408;BME280;32110;45.724;21.276;2023-09-30T16:21:09;100825.78;;;24.15;nan
46408;BME280;32110;45.724;21.276;2023-09-30T16:23:34;100795.50;;;24.10;nan
46408;BME280;32110;45.724;21.276;2023-09-30T16:25:59;100847.84;;;24.04;nan
46408;BME280;32110;45.724;21.276;2023-09-30T16:28:25;100834.63;;;23.93;nan
46408;BME280;32110;45.724;21.276;2023-09-30T16:30:51;100793.00;;;23.91;nan
46408;BME280;32110;45.724;21.276;2023-09-30T16:33:16;100841.66;;;23.81;nan
46408;BME280;32110;45.724;21.276;2023-09-30T16:35:49;100824.59;;;23.71;nan
46408;BME280;32110;45.724;21.276;2023-09-30T16:38:17;100837.47;;;23.61;nan
46408;BME280;32110;45.724;21.276;2023-09-30T16:40:49;100813.22;;;23.52;nan
46408;BME280;32110;45.724;21.276;2023-09-30T16:43:14;100819.28;;;23.44;nan
46408;BME280;32110;45.724;21.276;2023-09-30T16:45:40;100835.34;;;23.35;nan
46408;BME280;32110;45.724;21.276;2023-09-30T16:48:06;100841.88;;;23.29;nan
46408;BME280;32110;45.724;21.276;2023-09-30T16:50:31;100817.31;;;23.22;nan
46408;BME280;32110;45.724;21.276;2023-09-30T16:52:57;100862.91;;;23.13;nan
46408;BME280;32110;45.724;21.276;2023-09-30T16:55:22;100806.38;;;23.04;nan
46408;BME280;32110;45.724;21.276;2023-09-30T16:57:48;100827.44;;;22.97;nan
46408;BME280;32110;45.724;21.276;2023-09-30T17:02:41;100811.59;;;22.82;nan
46408;BME280;32110;45.724;21.276;2023-09-30T17:05:07;100824.28;;;22.62;nan
46408;BME280;32110;45.724;21.276;2023-09-30T17:07:32;100803.31;;;22.64;nan
46408;BME280;32110;45.724;21.276;2023-09-30T17:09:58;100863.94;;;22.51;nan
46408;BME280;32110;45.724;21.276;2023-09-30T17:12:23;100827.25;;;22.47;nan
46408;BME280;32110;45.724;21.276;2023-09-30T17:14:50;100802.78;;;22.35;nan
46408;BME280;32110;45.724;21.276;2023-09-30T17:17:16;100822.81;;;22.23;nan
46408;BME280;32110;45.724;21.276;2023-09-30T17:19:42;100820.41;;;22.22;nan
46408;BME280;32110;45.724;21.276;2023-09-30T17:22:07;100828.31;;;22.13;nan
46408;BME280;32110;45.724;21.276;2023-09-30T17:24:34;100832.38;;;22.11;nan
46408;BME280;32110;45.724;21.276;2023-09-30T17:26:59;100835.41;;;22.04;nan
46408;BME280;32110;45.724;21.276;2023-09-30T17:31:50;100831.78;;;21.95;nan
46408;BME280;32110;45.724;21.276;2023-09-30T17:34:15;100822.25;;;21.88;nan
46408;BME280;32110;45.724;21.276;2023-09-30T17:36:40;100825.72;;;21.89;nan
46408;BME280;32110;45.724;21.276;2023-09-30T17:39:06;100844.56;;;21.84;nan
46408;BME280;32110;45.724;21.276;2023-09-30T17:41:31;100838.72;;;21.58;nan
46408;BME280;32110;45.724;21.276;2023-09-30T17:43:57;100834.44;;;21.33;nan
46408;BME280;32110;45.724;21.276;2023-09-30T17:46:23;100849.00;;;21.27;nan
46408;BME280;32110;45.724;21.276;2023-09-30T17:48:48;100842.31;;;21.24;nan
46408;BME280;32110;45.724;21.276;2023-09-30T17:51:15;100797.13;;;21.17;nan
46408;BME280;32110;45.724;21.276;2023-09-30T17:53:51;100880.63;;;21.24;nan
46408;BME280;32110;45.724;21.276;2023-09-30T17:56:20;100860.03;;;21.20;nan
46408;BME280;32110;45.724;21.276;2023-09-30T17:58:46;100833.31;;;21.15;nan
46408;BME280;32110;45.724;21.276;2023-09-30T18:01:16;100869.19;;;21.14;nan
46408;BME280;32110;45.724;21.276;2023-09-30T18:03:47;100862.03;;;21.09;nan
46408;BME280;32110;45.724;21.276;2023-09-30T18:06:13;100837.91;;;21.09;nan
46408;BME280;32110;45.724;21.276;2023-09-30T18:08:40;100856.97;;;21.08;nan
46408;BME280;32110;45.724;21.276;2023-09-30T18:11:06;100858.88;;;21.02;nan
46408;BME280;32110;45.724;21.276;2023-09-30T18:13:34;100864.53;;;21.00;nan
46408;BME280;32110;45.724;21.276;2023-09-30T18:16:00;100864.59;;;20.95;nan
46408;BME280;32110;45.724;21.276;2023-09-30T18:20:53;100859.84;;;20.87;nan
46408;BME280;32110;45.724;21.276;2023-09-30T18:23:18;100865.50;;;20.86;nan
46408;BME280;32110;45.724;21.276;2023-09-30T18:25:44;100876.75;;;20.82;nan
46408;BME280;32110;45.724;21.276;2023-09-30T18:28:10;100864.19;;;20.78;nan
46408;BME280;32110;45.724;21.276;2023-09-30T18:30:38;100883.88;;;20.63;nan
46408;BME280;32110;45.724;21.276;2023-09-30T18:33:05;100870.97;;;20.70;nan
46408;BME280;32110;45.724;21.276;2023-09-30T18:35:31;100909.78;;;20.68;nan
46408;BME280;32110;45.724;21.276;2023-09-30T18:37:57;100867.81;;;20.63;nan
46408;BME280;32110;45.724;21.276;2023-09-30T18:40:22;100906.13;;;20.58;nan
46408;BME280;32110;45.724;21.276;2023-09-30T18:42:47;100867.03;;;20.63;nan
46408;BME280;32110;45.724;21.276;2023-09-30T18:45:13;100925.63;;;20.59;nan
46408;BME280;32110;45.724;21.276;2023-09-30T18:47:38;100871.91;;;20.55;nan
46408;BME280;32110;45.724;21.276;2023-09-30T18:52:30;100878.63;;;20.48;nan
46408;BME280;32110;45.724;21.276;2023-09-30T18:54:56;100873.81;;;20.45;nan
46408;BME280;32110;45.724;21.276;2023-09-30T18:57:22;100890.47;;;20.36;nan
46408;BME280;32110;45.724;21.276;2023-09-30T18:59:50;100872.84;;;20.35;nan
46408;BME280;32110;45.724;21.276;2023-09-30T19:02:15;100866.66;;;20.40;nan
46408;BME280;32110;45.724;21.276;2023-09-30T19:04:41;100878.44;;;20.34;nan
46408;BME280;32110;45.724;21.276;2023-09-30T19:07:06;100871.53;;;20.28;nan
46408;BME280;32110;45.724;21.276;2023-09-30T19:09:32;100862.66;;;20.32;nan
46408;BME280;32110;45.724;21.276;2023-09-30T19:11:57;100838.16;;;20.20;nan
46408;BME280;32110;45.724;21.276;2023-09-30T19:14:23;100945.88;;;20.31;nan
46408;BME280;32110;45.724;21.276;2023-09-30T19:16:49;100930.38;;;20.28;nan
46408;BME280;32110;45.724;21.276;2023-09-30T19:21:41;100879.00;;;20.31;nan
46408;BME280;32110;45.724;21.276;2023-09-30T19:24:06;100857.13;;;20.24;nan
46408;BME280;32110;45.724;21.276;2023-09-30T19:31:27;100884.44;;;20.15;nan
46408;BME280;32110;45.724;21.276;2023-09-30T19:33:53;100813.94;;;20.01;nan
46408;BME280;32110;45.724;21.276;2023-09-30T19:36:19;100898.63;;;20.11;nan
46408;BME280;32110;45.724;21.276;2023-09-30T19:38:44;100862.91;;;20.02;nan
46408;BME280;32110;45.724;21.276;2023-09-30T19:41:17;100893.34;;;20.01;nan
46408;BME280;32110;45.724;21.276;2023-09-30T19:43:44;100886.94;;;19.96;nan
46408;BME280;32110;45.724;21.276;2023-09-30T19:48:38;100884.59;;;19.85;nan
46408;BME280;32110;45.724;21.276;2023-09-30T19:51:05;100890.78;;;19.85;nan
46408;BME280;32110;45.724;21.276;2023-09-30T19:53:31;100936.72;;;19.82;nan
46408;BME280;32110;45.724;21.276;2023-09-30T19:56:06;100890.78;;;19.85;nan
46408;BME280;32110;45.724;21.276;2023-09-30T19:58:35;100906.03;;;19.74;nan
46408;BME280;32110;45.724;21.276;2023-09-30T20:01:07;100856.59;;;19.77;nan
46408;BME280;32110;45.724;21.276;2023-09-30T20:03:34;100903.66;;;19.73;nan
46408;BME280;32110;45.724;21.276;2023-09-30T20:06:00;100890.81;;;19.65;nan
46408;BME280;32110;45.724;21.276;2023-09-30T20:08:28;100896.47;;;19.68;nan
46408;BME280;32110;45.724;21.276;2023-09-30T20:10:55;100863.03;;;19.61;nan
46408;BME280;32110;45.724;21.276;2023-09-30T20:13:21;100865.50;;;19.52;nan
46408;BME280;32110;45.724;21.276;2023-09-30T20:15:46;100875.59;;;19.60;nan
46408;BME280;32110;45.724;21.276;2023-09-30T20:20:37;100895.91;;;19.56;nan
46408;BME280;32110;45.724;21.276;2023-09-30T20:25:27;100898.06;;;19.49;nan
46408;BME280;32110;45.724;21.276;2023-09-30T20:27:55;100879.16;;;19.40;nan
46408;BME280;32110;45.724;21.276;2023-09-30T20:30:20;100889.84;;;19.40;nan
46408;BME280;32110;45.724;21.276;2023-09-30T20:32:46;100878.09;;;19.36;nan
46408;BME280;32110;45.724;21.276;2023-09-30T20:35:12;100897.06;;;19.34;nan
46408;BME280;32110;45.724;21.276;2023-09-30T20:37:37;100846.09;;;19.26;nan
46408;BME280;32110;45.724;21.276;2023-09-30T20:47:23;100860.25;;;19.21;nan
46408;BME280;32110;45.724;21.276;2023-09-30T20:49:49;100871.72;;;19.22;nan
46408;BME280;32110;45.724;21.276;2023-09-30T20:52:14;100937.16;;;19.19;nan
46408;BME280;32110;45.724;21.276;2023-09-30T20:54:41;100877.84;;;19.22;nan
46408;BME280;32110;45.724;21.276;2023-09-30T21:01:57;100873.88;;;19.20;nan
46408;BME280;32110;45.724;21.276;2023-09-30T21:06:48;100862.41;;;19.14;nan
46408;BME280;32110;45.724;21.276;2023-09-30T21:09:13;100871.22;;;19.09;nan
46408;BME280;32110;45.724;21.276;2023-09-30T21:11:40;100893.91;;;19.07;nan
46408;BME280;32110;45.724;21.276;2023-09-30T21:14:05;100875.50;;;19.16;nan
46408;BME280;32110;45.724;21.276;2023-09-30T21:16:31;100839.47;;;19.03;nan
46408;BME280;32110;45.724;21.276;2023-09-30T21:18:59;100939.31;;;19.02;nan
46408;BME280;32110;45.724;21.276;2023-09-30T21:21:24;100892.84;;;18.98;nan
46408;BME280;32110;45.724;21.276;2023-09-30T21:23:50;100886.72;;;18.97;nan
46408;BME280;32110;45.724;21.276;2023-09-30T21:26:15;100885.66;;;18.98;nan
46408;BME280;32110;45.724;21.276;2023-09-30T21:28:41;100881.13;;;18.94;nan
46408;BME280;32110;45.724;21.276;2023-09-30T21:31:17;100885.94;;;18.91;nan
46408;BME280;32110;45.724;21.276;2023-09-30T21:33:43;100869.41;;;18.84;nan
46408;BME280;32110;45.724;21.276;2023-09-30T21:36:09;100881.41;;;18.87;nan
46408;BME280;32110;45.724;21.276;2023-09-30T21:41:02;100873.66;;;18.80;nan
46408;BME280;32110;45.724;21.276;2023-09-30T21:43:27;100869.66;;;18.78;nan
46408;BME280;32110;45.724;21.276;2023-09-30T21:45:53;100869.66;;;18.78;nan
46408;BME280;32110;45.724;21.276;2023-09-30T21:48:18;100852.03;;;18.71;nan
46408;BME280;32110;45.724;21.276;2023-09-30T21:50:43;100868.56;;;18.68;nan
46408;BME280;32110;45.724;21.276;2023-09-30T21:53:09;100871.78;;;18.70;nan
46408;BME280;32110;45.724;21.276;2023-09-30T21:55:35;100833.91;;;18.63;nan
46408;BME280;32110;45.724;21.276;2023-09-30T21:58:00;100867.78;;;18.63;nan
46408;BME280;32110;45.724;21.276;2023-09-30T22:03:05;100870.44;;;18.53;nan
46408;BME280;32110;45.724;21.276;2023-09-30T22:07:56;100862.19;;;18.49;nan
46408;BME280;32110;45.724;21.276;2023-09-30T22:15:12;100840.56;;;18.50;nan
46408;BME280;32110;45.724;21.276;2023-09-30T22:17:38;100857.91;;;18.58;nan
46408;BME280;32110;45.724;21.276;2023-09-30T22:20:04;100847.50;;;18.52;nan
46408;BME280;32110;45.724;21.276;2023-09-30T22:24:59;100849.09;;;18.42;nan
46408;BME280;32110;45.724;21.276;2023-09-30T22:29:50;100869.91;;;18.45;nan
46408;BME280;32110;45.724;21.276;2023-09-30T22:32:16;100859.22;;;18.40;nan
46408;BME280;32110;45.724;21.276;2023-09-30T22:39:32;100858.19;;;18.52;nan
46408;BME280;32110;45.724;21.276;2023-09-30T22:41:57;100875.25;;;18.56;nan
46408;BME280;32110;45.724;21.276;2023-09-30T22:44:23;100859.75;;;18.58;nan
46408;BME280;32110;45.724;21.276;2023-09-30T22:49:13;100864.59;;;18.61;nan
46408;BME280;32110;45.724;21.276;2023-09-30T22:51:39;100882.97;;;18.62;nan
46408;BME280;32110;45.724;21.276;2023-09-30T22:54:04;100862.16;;;18.64;nan
46408;BME280;32110;45.724;21.276;2023-09-30T22:56:30;100877.63;;;18.62;nan
46408;BME280;32110;45.724;21.276;2023-09-30T23:01:24;100925.91;;;18.45;nan
46408;BME280;32110;45.724;21.276;2023-09-30T23:03:51;100852.84;;;18.41;nan
46408;BME280;32110;45.724;21.276;2023-09-30T23:06:18;100876.03;;;18.41;nan
46408;BME280;32110;45.724;21.276;2023-09-30T23:08:45;100825.34;;;18.41;nan
46408;BME280;32110;45.724;21.276;2023-09-30T23:11:14;100889.88;;;18.38;nan
46408;BME280;32110;45.724;21.276;2023-09-30T23:13:40;100962.91;;;18.26;nan